createdAt,value
2018-08-09T00:00:07.892Z,101016.00
2018-08-09T00:05:01.286Z,101022.00
2018-08-09T00:09:54.664Z,101012.00
2018-08-09T00:14:48.155Z,101006.00
2018-08-09T00:19:41.491Z,100997.00
2018-08-09T00:24:34.876Z,100989.00
2018-08-09T00:29:28.203Z,100996.00
2018-08-09T00:34:21.917Z,100996.00
2018-08-09T00:39:15.289Z,100995.00
2018-08-09T00:44:09.471Z,100992.00
2018-08-09T00:49:02.900Z,100985.00
2018-08-09T00:53:56.276Z,100983.00
2018-08-09T00:58:49.632Z,100976.00
2018-08-09T01:03:42.995Z,100980.00
2018-08-09T01:08:36.377Z,100973.00
2018-08-09T01:13:29.758Z,100961.00
2018-08-09T01:18:23.188Z,100951.00
2018-08-09T01:23:16.520Z,100957.00
2018-08-09T01:28:09.896Z,100959.00
2018-08-09T01:33:03.518Z,100957.00
2018-08-09T01:37:56.895Z,100958.00
2018-08-09T01:44:00.743Z,100958.00
2018-08-09T01:48:55.004Z,100962.00
2018-08-09T01:53:48.903Z,100961.00
2018-08-09T01:58:42.303Z,100948.00
2018-08-09T02:03:35.699Z,100945.00
2018-08-09T02:08:29.104Z,100945.00
2018-08-09T02:13:23.046Z,100944.00
2018-08-09T02:18:16.421Z,100939.00
2018-08-09T02:23:09.795Z,100929.00
2018-08-09T02:28:03.263Z,100914.00
2018-08-09T02:32:56.627Z,100900.00
2018-08-09T02:37:50.002Z,100898.00
2018-08-09T02:42:43.377Z,100884.00
2018-08-09T02:47:36.739Z,100885.00
2018-08-09T02:52:30.150Z,100871.00
2018-08-09T02:57:23.548Z,100870.00
2018-08-09T03:02:16.938Z,100877.00
2018-08-09T03:07:10.338Z,100880.00
2018-08-09T03:12:03.784Z,100883.00
2018-08-09T03:16:57.144Z,100877.00
2018-08-09T03:21:50.494Z,100884.00
2018-08-09T03:26:43.883Z,100886.00
2018-08-09T03:31:37.242Z,100866.00
2018-08-09T03:36:30.609Z,100868.00
2018-08-09T03:41:23.951Z,100857.00
2018-08-09T03:46:17.307Z,100867.00
2018-08-09T03:51:10.674Z,100866.00
2018-08-09T03:56:04.362Z,100886.00
2018-08-09T04:00:57.737Z,100891.00
2018-08-09T04:05:51.063Z,100874.00
2018-08-09T04:10:44.385Z,100857.00
2018-08-09T04:15:37.741Z,100869.00
2018-08-09T04:20:31.102Z,100878.00
2018-08-09T04:25:24.465Z,100857.00
2018-08-09T04:30:17.836Z,100846.00
2018-08-09T04:35:11.195Z,100835.00
2018-08-09T04:40:04.598Z,100833.00
2018-08-09T04:45:04.627Z,100851.00
2018-08-09T04:49:57.962Z,100852.00
2018-08-09T04:54:51.318Z,100847.00
2018-08-09T04:59:44.657Z,100830.00
2018-08-09T05:04:38.016Z,100830.00
2018-08-09T05:09:32.485Z,100833.00
2018-08-09T05:14:25.878Z,100829.00
2018-08-09T05:19:20.882Z,100831.00
2018-08-09T05:24:15.636Z,100834.00
2018-08-09T05:29:10.802Z,100831.00
2018-08-09T05:34:04.800Z,100817.00
2018-08-09T05:38:58.158Z,100798.00
2018-08-09T05:43:51.493Z,100783.00
2018-08-09T05:48:44.845Z,100779.00
2018-08-09T05:53:38.176Z,100789.00
2018-08-09T05:58:31.624Z,100780.00
2018-08-09T06:03:24.926Z,100772.00
2018-08-09T06:08:18.256Z,100753.00
2018-08-09T06:13:18.923Z,100758.00
2018-08-09T06:18:19.923Z,100754.00
2018-08-09T06:23:18.467Z,100759.00
2018-08-09T06:28:16.611Z,100759.00
2018-08-09T06:33:15.885Z,100743.00
2018-08-09T06:38:09.308Z,100731.00
2018-08-09T06:43:03.280Z,100721.00
2018-08-09T06:48:01.108Z,100705.00
2018-08-09T06:52:58.665Z,100697.00
2018-08-09T06:57:56.165Z,100686.00
2018-08-09T07:02:55.247Z,100682.00
2018-08-09T07:07:53.381Z,100670.00
2018-08-09T07:12:52.806Z,100667.00
2018-08-09T07:17:50.658Z,100686.00
2018-08-09T07:22:50.040Z,100677.00
2018-08-09T07:27:45.831Z,100669.00
2018-08-09T07:32:40.061Z,100682.00
2018-08-09T07:37:38.705Z,100674.00
2018-08-09T07:42:37.058Z,100679.00
2018-08-09T07:47:30.572Z,100668.00
2018-08-09T07:52:26.107Z,100687.00
2018-08-09T07:57:20.986Z,100674.00
2018-08-09T08:02:14.444Z,100644.00
2018-08-09T08:07:13.172Z,100634.00
2018-08-09T08:12:14.184Z,100635.00
2018-08-09T08:17:09.338Z,100630.00
2018-08-09T08:22:02.715Z,100629.00
2018-08-09T08:26:56.068Z,100607.00
2018-08-09T08:31:52.898Z,100593.00
2018-08-09T08:36:46.277Z,100616.00
2018-08-09T08:41:39.835Z,100602.00
2018-08-09T08:46:33.268Z,100591.00
2018-08-09T08:51:31.244Z,100589.00
2018-08-09T08:56:24.944Z,100604.00
2018-08-09T09:01:18.408Z,100583.00
2018-08-09T09:06:11.836Z,100563.00
2018-08-09T09:11:05.270Z,100552.00
2018-08-09T09:15:58.677Z,100540.00
2018-08-09T09:20:52.031Z,100537.00
2018-08-09T09:25:45.392Z,100515.00
2018-08-09T09:30:38.744Z,100502.00
2018-08-09T09:35:40.577Z,100466.00
2018-08-09T09:40:39.532Z,100431.00
2018-08-09T09:45:37.081Z,100411.00
2018-08-09T09:50:30.528Z,100403.00
2018-08-09T09:55:23.883Z,100371.00
2018-08-09T10:00:22.910Z,100373.00
2018-08-09T10:05:16.374Z,100351.00
2018-08-09T10:10:11.257Z,100342.00
2018-08-09T10:15:05.633Z,100332.00
2018-08-09T10:20:04.524Z,100339.00
2018-08-09T10:25:02.895Z,100345.00
2018-08-09T10:29:56.612Z,100339.00
2018-08-09T10:34:50.621Z,100329.00
2018-08-09T10:39:44.361Z,100314.00
2018-08-09T10:44:38.802Z,100316.00
2018-08-09T10:49:32.215Z,100297.00
2018-08-09T10:54:26.856Z,100277.00
2018-08-09T10:59:20.266Z,100241.00
2018-08-09T11:04:14.231Z,100227.00
2018-08-09T11:09:10.735Z,100227.00
2018-08-09T11:14:04.470Z,100233.00
2018-08-09T11:18:58.217Z,100257.00
2018-08-09T11:23:51.919Z,100236.00
2018-08-09T11:28:45.300Z,100214.00
2018-08-09T11:33:38.964Z,100200.00
2018-08-09T11:38:32.315Z,100187.00
2018-08-09T11:43:25.655Z,100179.00
2018-08-09T11:48:19.039Z,100179.00
2018-08-09T11:53:12.590Z,100143.00
2018-08-09T11:58:06.400Z,100136.00
2018-08-09T12:03:00.433Z,100129.00
2018-08-09T12:07:53.938Z,100146.00
2018-08-09T12:12:47.329Z,100146.00
2018-08-09T12:17:40.694Z,100155.00
2018-08-09T12:22:34.185Z,100164.00
2018-08-09T12:27:27.588Z,100172.00
2018-08-09T12:32:21.084Z,100179.00
2018-08-09T12:37:14.503Z,100156.00
2018-08-09T12:42:08.034Z,100157.00
2018-08-09T12:47:01.464Z,100157.00
2018-08-09T12:51:54.988Z,100166.00
2018-08-09T12:56:48.364Z,100176.00
2018-08-09T13:01:41.716Z,100182.00
2018-08-09T13:06:35.053Z,100204.00
2018-08-09T13:11:28.556Z,100199.00
2018-08-09T13:16:24.204Z,100218.00
2018-08-09T13:21:18.234Z,100259.00
2018-08-09T13:26:12.143Z,100282.00
2018-08-09T13:31:05.697Z,100291.00
2018-08-09T13:35:59.158Z,100312.00
2018-08-09T13:40:52.612Z,100300.00
2018-08-09T13:45:46.051Z,100309.00
2018-08-09T13:50:39.944Z,100291.00
2018-08-09T13:55:33.345Z,100300.00
2018-08-09T14:00:26.816Z,100289.00
2018-08-09T14:05:20.194Z,100293.00
2018-08-09T14:10:13.692Z,100295.00
2018-08-09T14:15:08.547Z,100306.00
2018-08-09T14:20:01.927Z,100323.00
2018-08-09T14:24:57.859Z,100334.00
2018-08-09T14:29:51.373Z,100335.00
2018-08-09T14:34:44.831Z,100322.00
2018-08-09T14:39:38.279Z,100322.00
2018-08-09T14:44:31.641Z,100339.00
2018-08-09T14:49:25.147Z,100351.00
2018-08-09T14:54:18.541Z,100359.00
2018-08-09T14:59:12.575Z,100367.00
2018-08-09T15:04:06.433Z,100350.00
2018-08-09T15:08:59.874Z,100350.00
2018-08-09T15:13:54.209Z,100354.00
2018-08-09T15:18:47.696Z,100354.00
2018-08-09T15:23:41.106Z,100357.00
2018-08-09T15:28:34.564Z,100361.00
2018-08-09T15:33:28.000Z,100361.00
2018-08-09T15:38:21.458Z,100366.00
2018-08-09T15:43:14.980Z,100372.00
2018-08-09T15:48:08.430Z,100379.00
2018-08-09T15:53:01.890Z,100359.00
2018-08-09T15:57:55.327Z,100362.00
2018-08-09T16:02:48.799Z,100363.00
2018-08-09T16:07:42.573Z,100375.00
2018-08-09T16:12:36.575Z,100373.00
2018-08-09T16:17:29.985Z,100370.00
2018-08-09T16:22:23.397Z,100367.00
2018-08-09T16:27:16.784Z,100362.00
2018-08-09T16:32:10.262Z,100365.00
2018-08-09T16:37:03.704Z,100351.00
2018-08-09T16:41:57.174Z,100345.00
2018-08-09T16:46:50.669Z,100352.00
2018-08-09T16:51:44.056Z,100347.00
2018-08-09T16:56:37.491Z,100339.00
2018-08-09T17:01:30.848Z,100335.00
2018-08-09T17:06:24.316Z,100321.00
2018-08-09T17:11:17.778Z,100334.00
2018-08-09T17:16:11.279Z,100325.00
2018-08-09T17:21:04.782Z,100341.00
2018-08-09T17:25:58.203Z,100344.00
2018-08-09T17:30:51.630Z,100354.00
2018-08-09T17:35:44.994Z,100356.00
2018-08-09T17:40:38.399Z,100370.00
2018-08-09T17:45:33.775Z,100369.00
2018-08-09T17:50:27.152Z,100371.00
2018-08-09T17:55:20.545Z,100388.00
2018-08-09T18:00:20.696Z,100400.00
2018-08-09T18:05:15.030Z,100410.00
2018-08-09T18:10:17.585Z,100415.00
2018-08-09T18:15:11.054Z,100442.00
2018-08-09T18:20:11.221Z,100462.00
2018-08-09T18:25:06.415Z,100471.00
2018-08-09T18:29:59.918Z,100481.00
2018-08-09T18:34:53.332Z,100494.00
2018-08-09T18:39:46.738Z,100501.00
2018-08-09T18:44:40.194Z,100521.00
2018-08-09T18:49:33.585Z,100532.00
2018-08-09T18:54:26.991Z,100550.00
2018-08-09T18:59:20.449Z,100565.00
2018-08-09T19:04:13.890Z,100581.00
2018-08-09T19:09:09.554Z,100593.00
2018-08-09T19:14:03.072Z,100609.00
2018-08-09T19:18:56.556Z,100611.00
2018-08-09T19:23:49.967Z,100634.00
2018-08-09T19:28:43.420Z,100630.00
2018-08-09T19:33:36.846Z,100643.00
2018-08-09T19:38:30.282Z,100653.00
2018-08-09T19:43:23.792Z,100660.00
2018-08-09T19:48:17.875Z,100675.00
2018-08-09T19:53:11.273Z,100684.00
2018-08-09T19:58:04.882Z,100702.00
2018-08-09T20:02:58.335Z,100709.00
2018-08-09T20:07:51.914Z,100704.00
2018-08-09T20:12:46.118Z,100716.00
2018-08-09T20:17:39.657Z,100715.00
2018-08-09T20:22:33.039Z,100725.00
2018-08-09T20:27:26.409Z,100743.00
2018-08-09T20:32:19.851Z,100773.00
2018-08-09T20:37:13.268Z,100795.00
2018-08-09T20:42:06.762Z,100801.00
2018-08-09T20:47:00.247Z,100823.00
2018-08-09T20:51:53.876Z,100838.00
2018-08-09T20:56:47.367Z,100858.00
2018-08-09T21:01:40.766Z,100872.00
2018-08-09T21:06:34.258Z,100890.00
2018-08-09T21:11:27.753Z,100899.00
2018-08-09T21:16:21.199Z,100925.00
2018-08-09T21:21:14.576Z,100935.00
2018-08-09T21:26:08.098Z,100947.00
2018-08-09T21:31:01.551Z,100958.00
2018-08-09T21:35:54.949Z,100969.00
2018-08-09T21:40:48.417Z,100988.00
2018-08-09T21:45:41.853Z,101004.00
2018-08-09T21:50:35.317Z,101001.00
2018-08-09T21:55:28.699Z,101014.00
2018-08-09T22:01:00.035Z,101027.00
2018-08-09T22:05:59.195Z,101037.00
2018-08-09T22:10:58.280Z,101048.00
2018-08-09T22:15:57.436Z,101071.00
2018-08-09T22:20:56.425Z,101085.00
2018-08-09T22:25:49.759Z,101091.00
2018-08-09T22:30:43.160Z,101102.00
2018-08-09T22:35:36.557Z,101109.00
2018-08-09T22:40:29.976Z,101118.00
2018-08-09T22:45:23.362Z,101125.00
2018-08-09T22:50:16.817Z,101133.00
2018-08-09T22:55:10.248Z,101147.00
2018-08-09T23:00:06.390Z,101148.00
2018-08-09T23:04:59.752Z,101146.00
2018-08-09T23:09:53.177Z,101151.00
2018-08-09T23:14:46.526Z,101165.00
2018-08-09T23:19:40.497Z,101175.00
2018-08-09T23:24:33.896Z,101193.00
2018-08-09T23:29:27.217Z,101210.00
2018-08-09T23:34:20.650Z,101211.00
2018-08-09T23:39:14.090Z,101222.00
2018-08-09T23:44:07.506Z,101221.00
2018-08-09T23:49:00.903Z,101237.00
2018-08-09T23:53:54.278Z,101253.00
2018-08-09T23:58:47.689Z,101267.00
